createdAt,value
2018-06-30T01:02:17.469Z,17.40
2018-06-30T01:04:45.999Z,16.40
2018-06-30T01:07:14.595Z,16.30
2018-06-30T01:09:44.631Z,16.20
2018-06-30T01:12:13.221Z,16.20
2018-06-30T01:14:41.611Z,16.20
2018-06-30T01:17:10.132Z,16.10
2018-06-30T01:19:39.032Z,16.10
2018-06-30T01:22:07.734Z,16.10
2018-06-30T01:24:36.728Z,16.00
2018-06-30T01:27:06.529Z,15.90
2018-06-30T01:29:34.993Z,16.00
2018-06-30T01:32:03.751Z,15.90
2018-06-30T01:34:32.832Z,15.90
2018-06-30T01:37:01.512Z,15.80
2018-06-30T01:39:32.069Z,15.80
2018-06-30T01:42:00.494Z,15.80
2018-06-30T01:44:29.366Z,15.80
2018-06-30T01:46:57.864Z,15.70
2018-06-30T01:49:26.304Z,15.70
2018-06-30T01:51:55.469Z,15.70
2018-06-30T01:54:24.035Z,15.70
2018-06-30T01:56:52.435Z,15.60
2018-06-30T01:59:21.239Z,15.60
2018-06-30T02:01:49.746Z,15.60
2018-06-30T02:04:18.473Z,15.60
2018-06-30T02:06:47.180Z,15.50
2018-06-30T02:09:16.370Z,15.50
2018-06-30T02:11:44.861Z,15.50
2018-06-30T02:14:13.863Z,15.50
2018-06-30T02:16:42.690Z,15.50
2018-06-30T02:19:11.157Z,15.50
2018-06-30T02:21:39.833Z,15.50
2018-06-30T02:24:08.237Z,15.50
2018-06-30T02:26:36.911Z,15.50
2018-06-30T02:29:05.428Z,15.50
2018-06-30T02:31:33.872Z,15.50
2018-06-30T02:34:02.507Z,15.60
2018-06-30T02:36:31.152Z,15.60
2018-06-30T02:39:00.110Z,15.60
2018-06-30T02:41:28.628Z,15.60
2018-06-30T02:43:57.176Z,15.60
2018-06-30T02:46:26.931Z,15.60
2018-06-30T02:48:55.464Z,15.60
2018-06-30T02:51:23.907Z,15.60
2018-06-30T02:53:52.319Z,15.70
2018-06-30T02:56:21.039Z,15.60
2018-06-30T02:58:49.751Z,15.60
2018-06-30T03:01:18.381Z,15.60
2018-06-30T03:03:46.951Z,15.60
2018-06-30T03:06:15.328Z,15.60
2018-06-30T03:08:43.977Z,15.60
2018-06-30T03:11:12.901Z,15.60
2018-06-30T03:13:41.320Z,15.60
2018-06-30T03:16:09.982Z,15.60
2018-06-30T03:18:38.528Z,15.60
2018-06-30T03:21:07.287Z,15.60
2018-06-30T03:23:36.066Z,15.50
2018-06-30T03:26:04.790Z,15.50
2018-06-30T03:28:33.172Z,15.50
2018-06-30T03:31:01.598Z,15.50
2018-06-30T03:33:30.536Z,15.50
2018-06-30T03:35:59.476Z,15.50
2018-06-30T03:38:28.859Z,15.50
2018-06-30T03:45:54.340Z,15.50
2018-06-30T03:48:22.724Z,15.60
2018-06-30T03:50:51.187Z,15.60
2018-06-30T03:53:21.177Z,15.60
2018-06-30T03:55:50.248Z,15.60
2018-06-30T03:58:18.631Z,15.60
2018-06-30T04:00:49.731Z,15.60
2018-06-30T04:03:18.546Z,15.60
2018-06-30T04:05:47.305Z,15.70
2018-06-30T04:08:15.939Z,15.80
2018-06-30T04:10:44.961Z,15.80
2018-06-30T04:13:13.818Z,15.90
2018-06-30T04:15:42.359Z,15.90
2018-06-30T04:18:10.861Z,15.90
2018-06-30T04:20:40.239Z,16.00
2018-06-30T04:23:09.096Z,16.00
2018-06-30T04:25:38.718Z,16.10
2018-06-30T04:28:08.640Z,16.10
2018-06-30T04:30:37.282Z,16.20
2018-06-30T04:33:06.308Z,16.20
2018-06-30T04:35:34.778Z,16.30
2018-06-30T04:38:04.084Z,16.30
2018-06-30T04:40:33.109Z,16.40
2018-06-30T04:43:02.308Z,16.40
2018-06-30T04:45:30.943Z,16.50
2018-06-30T04:47:59.346Z,16.50
2018-06-30T04:50:27.745Z,16.50
2018-06-30T04:52:56.276Z,16.60
2018-06-30T04:55:25.131Z,16.60
2018-06-30T04:57:53.648Z,16.60
2018-06-30T05:00:22.095Z,16.70
2018-06-30T05:02:51.720Z,16.70
2018-06-30T05:05:20.144Z,16.80
2018-06-30T05:07:48.790Z,16.90
2018-06-30T05:10:17.191Z,16.90
2018-06-30T05:12:45.750Z,17.00
2018-06-30T05:15:14.728Z,17.00
2018-06-30T05:17:43.158Z,17.10
2018-06-30T05:20:11.761Z,17.20
2018-06-30T05:22:40.185Z,17.20
2018-06-30T05:25:09.024Z,17.30
2018-06-30T05:27:37.497Z,17.40
2018-06-30T05:30:07.374Z,17.40
2018-06-30T05:32:35.946Z,17.50
2018-06-30T05:35:04.688Z,17.60
2018-06-30T05:37:36.191Z,17.70
2018-06-30T05:40:04.904Z,17.80
2018-06-30T05:42:33.336Z,17.80
2018-06-30T05:47:30.034Z,18.00
2018-06-30T05:49:59.101Z,18.30
2018-06-30T05:52:28.474Z,18.60
2018-06-30T05:54:56.882Z,19.20
2018-06-30T05:57:25.828Z,20.20
2018-06-30T05:59:55.211Z,21.60
2018-06-30T06:02:23.792Z,22.60
2018-06-30T06:04:52.854Z,23.90
2018-06-30T06:07:22.169Z,25.00
2018-06-30T06:09:50.905Z,25.90
2018-06-30T06:12:19.232Z,26.90
2018-06-30T06:14:48.941Z,26.60
2018-06-30T06:17:17.379Z,27.40
2018-06-30T06:19:46.807Z,27.10
2018-06-30T06:22:15.633Z,27.20
2018-06-30T06:24:44.480Z,27.10
2018-06-30T06:27:12.888Z,26.70
2018-06-30T06:29:41.769Z,26.70
2018-06-30T06:32:11.350Z,26.60
2018-06-30T06:34:40.778Z,25.30
2018-06-30T06:37:10.230Z,24.20
2018-06-30T06:39:38.749Z,23.40
2018-06-30T06:42:07.225Z,23.00
2018-06-30T06:44:35.745Z,22.20
2018-06-30T06:47:04.288Z,21.70
2018-06-30T06:49:32.984Z,21.30
2018-06-30T06:52:01.539Z,21.00
2018-06-30T06:54:30.027Z,20.80
2018-06-30T06:56:58.632Z,20.60
2018-06-30T06:59:28.272Z,20.60
2018-06-30T07:01:56.864Z,20.40
2018-06-30T07:04:25.266Z,20.40
2018-06-30T07:12:15.871Z,20.70
2018-06-30T07:14:44.941Z,21.00
2018-06-30T07:17:13.835Z,20.90
2018-06-30T07:19:43.602Z,21.10
2018-06-30T07:22:12.074Z,21.40
2018-06-30T07:24:40.520Z,21.70
2018-06-30T07:27:09.204Z,21.90
2018-06-30T07:29:38.094Z,22.00
2018-06-30T07:32:06.501Z,22.10
2018-06-30T07:34:35.083Z,22.20
2018-06-30T07:37:03.639Z,22.50
2018-06-30T07:39:32.805Z,22.50
2018-06-30T07:42:01.308Z,22.50
2018-06-30T07:44:30.354Z,22.80
2018-06-30T07:46:58.776Z,22.90
2018-06-30T07:49:27.266Z,23.20
2018-06-30T07:54:24.299Z,23.50
2018-06-30T07:56:53.355Z,24.40
2018-06-30T07:59:22.820Z,25.20
2018-06-30T08:01:51.794Z,25.60
2018-06-30T08:04:20.300Z,26.10
2018-06-30T08:06:48.821Z,26.90
2018-06-30T08:09:17.283Z,26.40
2018-06-30T08:11:46.210Z,26.20
2018-06-30T08:14:14.870Z,26.00
2018-06-30T08:16:43.730Z,25.80
2018-06-30T08:19:12.193Z,25.80
2018-06-30T08:21:40.896Z,26.10
2018-06-30T08:24:09.830Z,26.50
2018-06-30T08:26:38.231Z,26.40
2018-06-30T08:29:06.682Z,26.90
2018-06-30T08:31:35.124Z,27.70
2018-06-30T08:34:03.965Z,29.00
2018-06-30T08:36:32.529Z,29.90
2018-06-30T08:39:01.414Z,30.30
2018-06-30T08:41:29.887Z,31.10
2018-06-30T08:43:58.354Z,31.30
2018-06-30T08:46:27.186Z,31.00
2018-06-30T08:48:55.590Z,31.20
2018-06-30T08:51:24.064Z,31.20
2018-06-30T08:53:52.705Z,31.60
2018-06-30T08:56:21.201Z,32.10
2018-06-30T08:58:49.621Z,31.90
2018-06-30T09:01:18.437Z,32.00
2018-06-30T09:03:47.357Z,31.40
2018-06-30T09:06:15.952Z,31.40
2018-06-30T09:08:44.519Z,31.70
2018-06-30T09:11:13.141Z,32.50
2018-06-30T09:13:41.781Z,32.70
2018-06-30T09:16:10.740Z,32.90
2018-06-30T09:18:39.625Z,33.10
2018-06-30T09:21:08.737Z,32.90
2018-06-30T09:23:37.148Z,32.40
2018-06-30T09:26:05.857Z,32.90
2018-06-30T09:28:34.859Z,33.10
2018-06-30T09:31:03.327Z,33.00
2018-06-30T09:33:32.331Z,33.00
2018-06-30T09:36:01.260Z,33.30
2018-06-30T09:38:29.753Z,33.20
2018-06-30T09:40:58.740Z,32.80
2018-06-30T09:43:27.167Z,32.90
2018-06-30T09:45:55.790Z,33.00
2018-06-30T09:48:24.168Z,33.30
2018-06-30T09:53:20.922Z,33.40
2018-06-30T09:55:49.775Z,33.70
2018-06-30T09:58:18.361Z,33.60
2018-06-30T10:00:55.608Z,33.80
2018-06-30T10:03:24.961Z,34.00
2018-06-30T10:05:53.425Z,34.10
2018-06-30T10:08:22.580Z,34.50
2018-06-30T10:10:51.082Z,34.20
2018-06-30T10:13:20.302Z,34.30
2018-06-30T10:15:49.267Z,34.50
2018-06-30T10:18:17.665Z,34.40
2018-06-30T10:20:47.481Z,34.40
2018-06-30T10:23:15.867Z,34.80
2018-06-30T10:25:44.386Z,34.40
2018-06-30T10:28:12.852Z,34.40
2018-06-30T10:30:41.782Z,33.70
2018-06-30T10:33:11.051Z,33.60
2018-06-30T10:35:40.302Z,33.30
2018-06-30T10:38:09.056Z,33.70
2018-06-30T10:40:38.097Z,33.60
2018-06-30T10:43:06.716Z,33.50
2018-06-30T10:45:35.174Z,32.90
2018-06-30T10:48:04.113Z,32.80
2018-06-30T10:50:33.067Z,32.60
2018-06-30T10:53:02.005Z,32.70
2018-06-30T10:55:30.953Z,33.30
2018-06-30T10:57:59.520Z,33.60
2018-06-30T11:00:28.189Z,33.80
2018-06-30T11:03:00.262Z,33.80
2018-06-30T11:05:28.788Z,33.50
2018-06-30T11:07:57.255Z,33.30
2018-06-30T11:10:26.026Z,33.00
2018-06-30T11:12:55.124Z,32.60
2018-06-30T11:15:24.069Z,31.90
2018-06-30T11:17:52.840Z,31.80
2018-06-30T11:20:26.053Z,31.80
2018-06-30T11:22:54.676Z,31.40
2018-06-30T11:25:28.877Z,30.90
2018-06-30T11:27:57.784Z,30.40
2018-06-30T11:30:27.918Z,30.20
2018-06-30T11:32:56.586Z,29.70
2018-06-30T11:35:24.988Z,29.60
2018-06-30T11:37:54.212Z,29.60
2018-06-30T11:40:22.906Z,29.80
2018-06-30T11:42:51.538Z,29.70
2018-06-30T11:45:19.980Z,29.90
2018-06-30T11:47:49.620Z,30.20
2018-06-30T11:50:18.820Z,30.10
2018-06-30T11:52:47.541Z,30.00
2018-06-30T11:55:15.946Z,30.20
2018-06-30T11:57:44.468Z,29.60
2018-06-30T12:00:14.252Z,29.70
2018-06-30T12:02:42.797Z,29.90
2018-06-30T12:05:11.434Z,29.90
2018-06-30T12:07:39.869Z,29.70
2018-06-30T12:10:09.392Z,29.10
2018-06-30T12:12:37.825Z,28.60
2018-06-30T12:15:06.600Z,28.50
2018-06-30T12:17:35.217Z,28.80
2018-06-30T12:20:03.815Z,29.00
2018-06-30T12:22:32.530Z,29.20
2018-06-30T12:25:01.234Z,29.00
2018-06-30T12:27:30.395Z,28.80
2018-06-30T12:29:58.946Z,28.90
2018-06-30T12:32:28.547Z,28.90
2018-06-30T12:34:57.004Z,28.70
2018-06-30T12:37:26.704Z,28.40
2018-06-30T12:39:55.710Z,28.20
2018-06-30T12:42:24.163Z,28.00
2018-06-30T12:44:53.122Z,28.00
2018-06-30T12:47:22.044Z,27.80
2018-06-30T12:49:51.418Z,28.00
2018-06-30T12:52:20.372Z,27.80
2018-06-30T12:54:49.041Z,27.60
2018-06-30T12:57:17.701Z,27.40
2018-06-30T12:59:48.263Z,27.40
2018-06-30T13:02:17.236Z,27.50
2018-06-30T13:04:46.426Z,27.60
2018-06-30T13:07:15.710Z,27.50
2018-06-30T13:09:44.203Z,27.50
2018-06-30T13:12:12.695Z,27.50
2018-06-30T13:14:41.115Z,27.80
2018-06-30T13:17:10.293Z,27.50
2018-06-30T13:19:39.237Z,27.60
2018-06-30T13:22:09.138Z,27.60
2018-06-30T13:24:38.145Z,27.50
2018-06-30T13:27:06.783Z,27.60
2018-06-30T13:29:35.430Z,27.70
2018-06-30T13:32:04.540Z,27.80
2018-06-30T13:34:35.873Z,28.00
2018-06-30T13:37:04.548Z,28.10
2018-06-30T13:39:33.329Z,27.80
2018-06-30T13:42:01.915Z,27.60
2018-06-30T13:44:32.224Z,27.30
2018-06-30T13:47:01.150Z,27.40
2018-06-30T13:49:29.712Z,27.50
2018-06-30T13:51:58.601Z,27.40
2018-06-30T13:54:27.496Z,27.60
2018-06-30T13:56:56.211Z,27.60
2018-06-30T13:59:25.016Z,27.60
2018-06-30T14:01:53.710Z,27.70
2018-06-30T14:04:22.143Z,27.70
2018-06-30T14:06:51.261Z,27.90
2018-06-30T14:09:20.103Z,28.00
2018-06-30T14:14:17.961Z,28.20
2018-06-30T14:16:46.942Z,28.20
2018-06-30T14:19:15.406Z,28.10
2018-06-30T14:21:43.955Z,28.00
2018-06-30T14:24:12.591Z,27.70
2018-06-30T14:26:41.284Z,27.30
2018-06-30T14:29:09.900Z,27.10
2018-06-30T14:31:38.468Z,27.10
2018-06-30T14:34:07.385Z,27.10
2018-06-30T14:36:35.905Z,26.90
2018-06-30T14:39:07.458Z,26.70
2018-06-30T14:41:36.446Z,26.20
2018-06-30T14:44:05.123Z,25.80
2018-06-30T14:46:35.329Z,25.70
2018-06-30T14:49:04.826Z,25.70
2018-06-30T14:51:33.895Z,25.80
2018-06-30T14:54:03.329Z,25.90
2018-06-30T14:56:32.103Z,26.00
2018-06-30T15:01:29.724Z,26.10
2018-06-30T15:03:58.876Z,26.10
2018-06-30T15:06:27.778Z,26.10
2018-06-30T15:08:56.573Z,26.00
2018-06-30T15:11:25.020Z,26.10
2018-06-30T15:13:54.363Z,26.10
2018-06-30T15:16:22.769Z,26.20
2018-06-30T15:18:51.281Z,26.30
2018-06-30T15:21:20.314Z,26.40
2018-06-30T15:23:49.046Z,26.40
2018-06-30T15:26:17.533Z,26.30
2018-06-30T15:28:46.096Z,26.20
2018-06-30T15:31:15.235Z,26.10
2018-06-30T15:33:43.776Z,26.10
2018-06-30T15:36:12.631Z,25.90
2018-06-30T15:38:41.387Z,25.80
2018-06-30T15:43:38.347Z,25.50
2018-06-30T15:46:07.980Z,25.70
2018-06-30T15:48:36.561Z,25.70
2018-06-30T15:51:05.974Z,25.70
2018-06-30T15:53:34.401Z,25.70
2018-06-30T15:56:03.441Z,25.60
2018-06-30T15:58:32.092Z,25.50
2018-06-30T16:01:00.822Z,25.40
2018-06-30T16:03:29.802Z,25.40
2018-06-30T16:05:58.265Z,25.30
2018-06-30T16:08:26.696Z,25.30
2018-06-30T16:10:55.119Z,25.10
2018-06-30T16:15:52.949Z,24.90
2018-06-30T16:18:21.924Z,24.90
2018-06-30T16:23:19.236Z,24.80
2018-06-30T16:25:47.979Z,24.70
2018-06-30T16:28:16.807Z,24.60
2018-06-30T16:30:45.425Z,24.60
2018-06-30T16:33:14.153Z,24.50
2018-06-30T16:35:43.793Z,24.40
2018-06-30T16:38:12.311Z,24.20
2018-06-30T16:40:41.005Z,24.20
2018-06-30T16:43:09.778Z,24.20
2018-06-30T16:45:38.397Z,24.10
2018-06-30T16:48:07.252Z,24.10
2018-06-30T16:50:35.913Z,24.00
2018-06-30T16:53:05.018Z,24.00
2018-06-30T16:55:33.457Z,23.90
2018-06-30T16:58:02.320Z,23.70
2018-06-30T17:00:30.772Z,23.60
2018-06-30T17:02:59.808Z,23.50
2018-06-30T17:05:28.595Z,23.30
2018-06-30T17:07:57.033Z,23.30
2018-06-30T17:10:25.837Z,23.30
2018-06-30T17:12:54.276Z,23.30
2018-06-30T17:15:22.792Z,23.20
2018-06-30T17:17:52.284Z,23.20
2018-06-30T17:20:21.343Z,23.10
2018-06-30T17:22:49.960Z,23.00
2018-06-30T17:25:18.560Z,22.90
2018-06-30T17:27:47.178Z,22.80
2018-06-30T17:30:15.622Z,22.70
2018-06-30T17:32:44.624Z,22.60
2018-06-30T17:35:13.496Z,22.60
2018-06-30T17:37:42.388Z,22.50
2018-06-30T17:40:11.193Z,22.40
2018-06-30T17:42:40.135Z,22.30
2018-06-30T17:45:09.670Z,22.30
2018-06-30T17:47:39.572Z,22.20
2018-06-30T17:50:08.103Z,22.10
2018-06-30T17:52:37.214Z,22.00
2018-06-30T17:55:06.515Z,22.00
2018-06-30T17:57:35.217Z,21.90
2018-06-30T18:00:05.939Z,21.80
2018-06-30T18:02:34.431Z,21.70
2018-06-30T18:05:03.508Z,21.70
2018-06-30T18:07:32.261Z,21.60
2018-06-30T18:12:30.064Z,21.40
2018-06-30T18:14:58.942Z,21.30
2018-06-30T18:17:27.670Z,21.30
2018-06-30T18:19:56.573Z,21.20
2018-06-30T18:22:25.608Z,21.10
2018-06-30T18:24:54.576Z,21.00
2018-06-30T18:27:26.912Z,20.90
2018-06-30T18:29:55.548Z,20.70
2018-06-30T18:32:24.312Z,20.60
2018-06-30T18:34:53.865Z,20.60
2018-06-30T18:37:22.713Z,20.50
2018-06-30T18:39:51.165Z,20.40
2018-06-30T18:42:19.663Z,20.30
2018-06-30T18:44:48.686Z,20.10
2018-06-30T18:47:17.538Z,20.00
2018-06-30T18:49:45.975Z,20.00
2018-06-30T18:52:16.184Z,19.90
2018-06-30T18:54:44.832Z,19.80
2018-06-30T18:57:13.460Z,19.70
2018-06-30T18:59:42.032Z,19.60
2018-06-30T19:02:10.767Z,19.50
2018-06-30T19:04:39.394Z,19.40
2018-06-30T19:07:07.980Z,19.30
2018-06-30T19:09:37.649Z,19.20
2018-06-30T19:12:06.858Z,19.20
2018-06-30T19:14:35.256Z,19.10
2018-06-30T19:17:03.870Z,19.00
2018-06-30T19:19:32.552Z,19.00
2018-06-30T19:22:02.274Z,18.80
2018-06-30T19:24:31.064Z,18.80
2018-06-30T19:27:00.270Z,18.70
2018-06-30T19:29:29.241Z,18.60
2018-06-30T19:31:58.258Z,18.60
2018-06-30T19:34:27.385Z,18.50
2018-06-30T19:36:56.560Z,18.50
2018-06-30T19:39:25.141Z,18.40
2018-06-30T19:41:54.566Z,18.30
2018-06-30T19:44:24.264Z,18.20
2018-06-30T19:46:53.374Z,18.10
2018-06-30T19:49:21.968Z,18.00
2018-06-30T19:51:50.444Z,17.90
2018-06-30T19:54:19.221Z,17.90
2018-06-30T19:56:48.065Z,17.90
2018-06-30T19:59:17.502Z,17.90
2018-06-30T20:01:46.921Z,17.90
2018-06-30T20:04:16.330Z,17.70
2018-06-30T20:06:45.658Z,17.60
2018-06-30T20:09:14.254Z,17.50
2018-06-30T20:11:43.247Z,17.40
2018-06-30T20:14:12.040Z,17.40
2018-06-30T20:16:40.902Z,17.30
2018-06-30T20:19:09.646Z,17.20
2018-06-30T20:21:38.210Z,17.20
2018-06-30T20:24:06.908Z,17.10
2018-06-30T20:26:35.790Z,17.10
2018-06-30T20:29:04.585Z,17.00
2018-06-30T20:31:33.205Z,16.90
2018-06-30T20:34:02.168Z,16.90
2018-06-30T20:36:30.768Z,16.80
2018-06-30T20:39:00.008Z,16.80
2018-06-30T20:41:28.554Z,16.70
2018-06-30T20:43:57.599Z,16.60
2018-06-30T20:46:26.901Z,16.60
2018-06-30T20:48:55.706Z,16.50
2018-06-30T20:51:24.737Z,16.40
2018-06-30T20:53:53.505Z,16.40
2018-06-30T20:56:21.996Z,16.30
2018-06-30T20:58:50.468Z,16.30
2018-06-30T21:01:19.296Z,16.20
2018-06-30T21:03:47.753Z,16.10
2018-06-30T21:06:16.131Z,16.10
2018-06-30T21:08:44.846Z,16.00
2018-06-30T21:11:13.508Z,16.00
2018-06-30T21:13:42.172Z,15.90
2018-06-30T21:16:11.013Z,15.80
2018-06-30T21:18:39.856Z,15.80
2018-06-30T21:21:08.722Z,15.70
2018-06-30T21:23:37.665Z,15.70
2018-06-30T21:26:06.226Z,15.60
2018-06-30T21:31:03.325Z,15.50
2018-06-30T21:33:32.161Z,15.40
2018-06-30T21:36:00.633Z,15.40
2018-06-30T21:38:29.996Z,15.40
2018-06-30T21:40:58.523Z,15.30
2018-06-30T21:43:26.959Z,15.30
2018-06-30T21:45:55.974Z,15.40
2018-06-30T21:48:24.870Z,15.40
2018-06-30T21:50:53.748Z,15.40
2018-06-30T21:53:22.158Z,15.40
